Flight Track Log - Related Links

Times and Time Zones

All times are in EDT time to prevent confusion due to time zone crossing. See the TAM3531 flight status page for this flight to view local times or setup timezone preferences in your user account.

Time Position Orientation Groundspeed Altitude Reporting Facility
EDT Latitude Longitude Course Direction KTS MPH feet Rate Location/Type
Sun 04:37:06 PM -20.2570 -40.2880 107° East 115 132  Level FlightAware ADS-B
Sun 04:38:00 PM -20.2600 -40.2770 106° East 115 132 24 Level FlightAware ADS-B
Sun 04:38:05 PM -20.2570 -40.2880 286° West 115 132 25 Level FlightAware ADS-B
Sun 04:40:00 PM -20.3598 -40.3965 225° Southwest  Level Estimated
Sun 04:40:06 PM -20.2570 -40.2880 225° Southwest 115 132  Level FlightAware ADS-B
Sun 04:42:00 PM -20.3589 -40.3956 225° Southwest  Level Estimated
Sun 04:42:13 PM -20.2600 -40.2760 225° Southwest 115 132  Level FlightAware ADS-B
Sun 04:44:00 PM -20.3554 -40.3772 225° Southwest  Level Estimated
Sun 04:44:00 PM -20.2600 -40.2760 225° Southwest 115 132  Level FlightAware ADS-B
Sun 04:45:28 PM -20.2600 -40.2770 270° West 115 132 31 Level FlightAware ADS-B
Sun 04:46:30 PM -20.2600 -40.2760 90° East 115 132 33 Level FlightAware ADS-B
Sun 04:48:30 PM -20.2600 -40.2770 270° West 115 132 34 Level FlightAware ADS-B
Sun 04:50:01 PM -20.2600 -40.2760 90° East 115 132 37 Level FlightAware ADS-B
Sun 04:50:30 PM -20.2600 -40.2770 270° West 115 132 40 Level FlightAware ADS-B
Sun 04:51:31 PM -20.2600 -40.2760 90° East 115 132 41 Level FlightAware ADS-B
Sun 04:52:05 PM -20.2610 -40.2750 137° Southeast 115 132 43 Level FlightAware ADS-B
Sun 04:52:33 PM -20.2600 -40.2760 317° Northwest 115 132 45 Level FlightAware ADS-B
Sun 04:53:05 PM -20.2610 -40.2750 137° Southeast 115 132 46 Level FlightAware ADS-B
Sun 04:53:33 PM -20.2600 -40.2770 298° West 115 132 47 Level FlightAware ADS-B
Sun 04:54:05 PM -20.2610 -40.2750 118° Southeast 115 132 49 Level FlightAware ADS-B
Sun 04:55:05 PM -20.2600 -40.2760 317° Northwest 115 132 50 Level FlightAware ADS-B
Sun 04:55:33 PM -20.2600 -40.2770 270° West 115 132 54 Level FlightAware ADS-B
Sun 04:56:09 PM -20.2600 -40.2760 90° East 115 132 55 Level FlightAware ADS-B
Sun 04:58:00 PM -20.3590 -40.3810 225° Southwest  Level Estimated
Sun 04:58:35 PM -20.2600 -40.2760 225° Southwest 115 132  Level FlightAware ADS-B
Sun 05:00:55 PM -20.2600 -40.2760 225° Southwest 115 132 70 Level FlightAware ADS-B
Sun 05:01:00 PM -20.3893 -40.4132 225° Southwest  Level Estimated
Sun 05:03:00 PM -20.3714 -40.3943 225° Southwest  Level Estimated
Sun 05:03:31 PM -20.2450 -40.2870 225° Southwest 115 132  Level FlightAware ADS-B
Sun 05:03:33 PM -20.2570 -40.2880 184° South 115 132 124 Level FlightAware ADS-B
Sun 05:03:59 PM -20.2460 -40.2850 14° North 115 132 124 Level FlightAware ADS-B
Sun 05:04:35 PM -20.2570 -40.2880 194° South 115 132 133 Level FlightAware ADS-B
Sun 05:05:03 PM -20.2450 -40.2850 13° North 115 132 148 Level FlightAware ADS-B
Sun 05:06:31 PM -20.2460 -40.2830 118° Southeast 115 132 162 Level FlightAware ADS-B
Sun 05:06:53 PM -20.2570 -40.2860 194° South 115 132 231 Level FlightAware ADS-B
Sun 05:07:32 PM -20.2560 -40.2860 360° North 115 132 258 Level FlightAware ADS-B
Sun 05:08:00 PM -20.2550 -40.2850 43° Northeast 115 132 327 Level FlightAware ADS-B
Sun 05:08:33 PM -20.2530 -40.2830 43° Northeast 115 132 403 Level FlightAware ADS-B
Sun 05:08:51 PM -20.2510 -40.2820 25° Northeast 115 132 558 Level FlightAware ADS-B
Sun 05:09:14 PM -20.2540 -40.2840 212° Southwest 115 132 706 Level FlightAware ADS-B
Sun 05:09:36 PM -20.2640 -40.2910 213° Southwest 115 132 1,067 Level FlightAware ADS-B
Sun 05:09:59 PM -20.2800 -40.3010 210° Southwest 164 189 800 1,846 Climbing FlightAware ADS-B
Sun 05:10:15 PM -20.2920 -40.3050 197° South 182 209 1,200 1,500 Climbing FlightAware ADS-B
Sun 05:10:27 PM -20.3020 -40.3070 191° South 198 228 1,500 1,818 Climbing FlightAware ADS-B
Sun 05:10:48 PM -20.3230 -40.3120 193° South 227 261 2,200 1,556 Climbing FlightAware ADS-B
Sun 05:11:21 PM -20.3440 -40.3160 190° South 252 290 2,900 2,604 Climbing FlightAware ADS-B
Sun 05:11:41 PM -20.3760 -40.2990 154° Southeast 267 307 4,500 4,364 Climbing FlightAware ADS-B
Sun 05:11:54 PM -20.3860 -40.2860 129° Southeast 271 312 5,300 3,111 Climbing FlightAware ADS-B
Sun 05:12:08 PM -20.3960 -40.2760 137° Southeast 275 316 5,900 2,538 Climbing FlightAware ADS-B
Sun 05:12:20 PM -20.4060 -40.2710 155° Southeast 276 318 6,400 2,667 Climbing FlightAware ADS-B
Sun 05:12:26 PM -20.4120 -40.2700 171° South 279 321 6,700 2,500 Climbing FlightAware ADS-B
Sun 05:12:32 PM -20.4190 -40.2700 180° South 282 325 6,900 2,455 Climbing FlightAware ADS-B
Sun 05:12:48 PM -20.4360 -40.2760 198° South 290 334 7,600 3,938 Climbing FlightAware ADS-B
Sun 05:13:04 PM -20.4620 -40.2950 214° Southwest 293 337 9,000 4,133 Climbing FlightAware ADS-B
Sun 05:13:33 PM -20.4930 -40.3200 217° Southwest 291 335 10,700 2,507 Climbing FlightAware ADS-B
Sun 05:14:11 PM -20.5420 -40.3580 216° Southwest 337 388 11,800 2,000 Climbing FlightAware ADS-B
Sun 05:14:48 PM -20.5860 -40.3940 217° Southwest 350 403 13,200 2,687 Climbing FlightAware ADS-B
Sun 05:15:18 PM -20.6310 -40.4310 218° Southwest 357 411 14,800 3,000 Climbing FlightAware ADS-B
Sun 05:15:54 PM -20.6790 -40.4700 217° Southwest 362 417 16,500 2,630 Climbing FlightAware ADS-B
Sun 05:16:31 PM -20.7270 -40.5100 218° Southwest 367 422 18,000 1,886 Climbing FlightAware ADS-B
Sun 05:17:04 PM -20.7590 -40.5360 217° Southwest 378 435 18,700 1,629 Climbing FlightAware ADS-B
Sun 05:17:41 PM -20.8080 -40.5760 217° Southwest 386 444 19,900 2,219 Climbing FlightAware ADS-B
Sun 05:18:17 PM -20.8660 -40.6240 218° Southwest 394 453 21,400 2,028 Climbing FlightAware ADS-B
Sun 05:18:52 PM -20.9150 -40.6640 217° Southwest 406 467 22,300 1,971 Climbing FlightAware ADS-B
Sun 05:19:27 PM -20.9670 -40.7080 218° Southwest 407 468 23,700 2,366 Climbing FlightAware ADS-B
Sun 05:20:03 PM -21.0220 -40.7530 217° Southwest 404 465 25,100 2,149 Climbing FlightAware ADS-B
Sun 05:20:34 PM -21.0620 -40.7860 218° Southwest 404 465 26,100 2,239 Climbing FlightAware ADS-B
Sun 05:21:10 PM -21.1140 -40.8290 218° Southwest 397 457 27,600 1,652 Climbing FlightAware ADS-B
Sun 05:21:43 PM -21.1670 -40.8740 218° Southwest 386 444 28,000 338 Climbing FlightAware ADS-B
Sun 05:22:21 PM -21.2190 -40.9170 218° Southwest 385 443 28,000  Level FlightAware ADS-B
Sun 05:22:56 PM -21.2610 -40.9520 218° Southwest 388 447 28,000  Level FlightAware ADS-B
Sun 05:23:31 PM -21.3130 -40.9950 218° Southwest 391 450 28,000  Level FlightAware ADS-B
Sun 05:24:05 PM -21.3670 -41.0410 218° Southwest 392 451 28,000  Level FlightAware ADS-B
Sun 05:24:43 PM -21.4190 -41.0830 217° Southwest 394 453 28,000 85 Level FlightAware ADS-B
Sun 05:25:16 PM -21.4650 -41.1220 218° Southwest 392 451 28,100  Climbing FlightAware ADS-B
Sun 05:25:50 PM -21.5820 -41.2200 218° Southwest 388 447 28,000 -86 Descending FlightAware ADS-B
Sun 05:26:26 PM -21.6340 -41.2630 218° Southwest 387 445 28,000  Level FlightAware ADS-B
Sun 05:27:00 PM -21.6740 -41.2970 218° Southwest 387 445 28,000  Level FlightAware ADS-B
Sun 05:27:38 PM -21.7270 -41.3410 218° Southwest 388 447 28,000  Level FlightAware ADS-B
Sun 05:28:18 PM -21.7850 -41.3900 218° Southwest 389 448 28,000  Level FlightAware ADS-B
Sun 05:28:51 PM -21.8320 -41.4300 218° Southwest 390 449 28,000  Level FlightAware ADS-B
Sun 05:29:28 PM -21.8840 -41.4730 217° Southwest 390 449 28,000  Level FlightAware ADS-B
Sun 05:30:05 PM -21.9370 -41.5180 218° Southwest 391 450 28,000  Level FlightAware ADS-B
Sun 05:30:46 PM -21.9960 -41.5680 218° Southwest 392 451 28,000  Level FlightAware ADS-B
Sun 05:31:19 PM -22.0420 -41.6060 217° Southwest 390 449 28,000 87 Level FlightAware ADS-B
Sun 05:31:55 PM -22.0900 -41.6650 229° Southwest 384 442 28,100  Climbing FlightAware ADS-B
Sun 05:32:28 PM -22.1220 -41.7080 231° Southwest 383 441 28,000 -86 Descending FlightAware ADS-B
Sun 05:33:05 PM -22.1630 -41.7650 232° Southwest 381 438 28,000  Level FlightAware ADS-B
Sun 05:33:42 PM -22.2010 -41.8170 232° Southwest 381 438 28,000  Level FlightAware ADS-B
Sun 05:34:22 PM -22.2490 -41.8840 232° Southwest 382 440 28,000  Level FlightAware ADS-B
Sun 05:34:55 PM -22.2830 -41.9310 232° Southwest 383 441 28,000  Level FlightAware ADS-B
Sun 05:35:32 PM -22.3270 -41.9920 232° Southwest 384 442 28,000  Level FlightAware ADS-B
Sun 05:36:05 PM -22.3560 -42.0330 233° Southwest 384 442 28,000  Level FlightAware ADS-B
Sun 05:36:45 PM -22.4040 -42.0990 232° Southwest 385 443 28,000  Level FlightAware ADS-B
Sun 05:37:18 PM -22.4370 -42.1450 232° Southwest 385 443 28,000  Level FlightAware ADS-B
Sun 05:37:59 PM -22.4810 -42.2070 232° Southwest 385 443 28,000 -405 Level FlightAware ADS-B
Sun 05:38:32 PM -22.5170 -42.2580 233° Southwest 384 442 27,500 -1,108 Descending FlightAware ADS-B
Sun 05:39:04 PM -22.5530 -42.3070 231° Southwest 386 444 26,800 -1,808 Descending FlightAware ADS-B
Sun 05:39:45 PM -22.5980 -42.3700 232° Southwest 380 437 25,300 -2,137 Descending FlightAware ADS-B
Sun 05:40:17 PM -22.6320 -42.4180 232° Southwest 376 433 24,200 -2,057 Descending FlightAware ADS-B
Sun 05:40:55 PM -22.6710 -42.4730 232° Southwest 371 427 22,900 -2,057 Descending FlightAware ADS-B
Sun 05:41:27 PM -22.7060 -42.5210 232° Southwest 367 422 21,800 -2,031 Descending FlightAware ADS-B
Sun 05:42:00 PM -22.7390 -42.5680 233° Southwest 362 417 20,700 -1,890 Descending FlightAware ADS-B
Sun 05:42:40 PM -22.7790 -42.6240 232° Southwest 354 407 19,500 -1,703 Descending FlightAware ADS-B
Sun 05:43:14 PM -22.8120 -42.6700 232° Southwest 348 400 18,600 -1,727 Descending FlightAware ADS-B
Sun 05:43:46 PM -22.8440 -42.7160 233° Southwest 343 395 17,600 -1,754 Descending FlightAware ADS-B
Sun 05:44:19 PM -22.8760 -42.7600 232° Southwest 340 391 16,700 -1,644 Descending FlightAware ADS-B
Sun 05:44:59 PM -22.9130 -42.8130 233° Southwest 336 387 15,600 -1,726 Descending FlightAware ADS-B
Sun 05:45:32 PM -22.9460 -42.8590 232° Southwest 334 384 14,600 -1,742 Descending FlightAware ADS-B
Sun 05:46:01 PM -22.9710 -42.9030 238° Southwest 333 383 13,800 -1,258 Descending FlightAware ADS-B
Sun 05:46:34 PM -22.9790 -42.9470 259° West 332 382 13,300 -1,054 Descending FlightAware ADS-B
Sun 05:47:15 PM -22.9920 -43.0160 258° West 321 369 12,500 -986 Descending FlightAware ADS-B
Sun 05:47:47 PM -23.0000 -43.0560 258° West 306 352 12,100 -806 Descending FlightAware ADS-B
Sun 05:48:22 PM -23.0130 -43.1260 259° West 297 342 11,600 -761 Descending FlightAware ADS-B
Sun 05:48:58 PM -23.0230 -43.1790 258° West 294 338 11,200 -833 Descending FlightAware ADS-B
Sun 05:49:34 PM -23.0320 -43.2300 259° West 292 336 10,600 -1,114 Descending FlightAware ADS-B
Sun 05:50:08 PM -23.0420 -43.2800 258° West 288 331 9,900 -1,444 Descending FlightAware ADS-B
Sun 05:50:28 PM -23.0470 -43.3080 259° West 289 333 9,300 -1,333 Descending FlightAware ADS-B
Sun 05:50:44 PM -23.0510 -43.3300 259° West 282 325 9,100 -667 Descending FlightAware ADS-B
Sun 05:51:04 PM -23.0560 -43.3580 259° West 268 308 8,900 -632 Descending FlightAware ADS-B
Sun 05:51:22 PM -23.0600 -43.3810 259° West 256 295 8,700 -818 Descending FlightAware ADS-B
Sun 05:51:48 PM -23.0480 -43.4090 295° West 246 283 8,300 -800 Descending FlightAware ADS-B
Sun 05:51:52 PM -23.0440 -43.4120 325° Northwest 244 281 8,300 -857 Level FlightAware ADS-B
Sun 05:52:16 PM -23.0220 -43.4280 326° Northwest 237 273 7,900 -1,227 Descending FlightAware ADS-B
Sun 05:52:36 PM -23.0040 -43.4410 326° Northwest 238 274 7,400 -1,313 Descending FlightAware ADS-B
Sun 05:52:48 PM -22.9930 -43.4490 326° Northwest 239 275 7,200 -1,125 Descending FlightAware ADS-B
Sun 05:53:24 PM -22.9600 -43.4710 328° Northwest 236 272 6,500 -1,317 Descending FlightAware ADS-B
Sun 05:53:29 PM -22.9540 -43.4710 360° North 237 273 6,300 -1,200 Descending FlightAware ADS-B
Sun 05:53:49 PM -22.9340 -43.4630 20° North 238 274 6,000 -1,000 Descending FlightAware ADS-B
Sun 05:53:59 PM -22.9280 -43.4550 51° Northeast 239 275 5,800 -1,200 Descending FlightAware ADS-B
Sun 05:54:19 PM -22.9130 -43.4350 51° Northeast 233 268 5,400 -750 Descending FlightAware ADS-B
Sun 05:54:39 PM -22.9010 -43.4170 54° Northeast 223 257 5,300 -300 Descending FlightAware ADS-B
Sun 05:54:59 PM -22.8900 -43.4010 53° Northeast 210 242 5,200 -450 Descending FlightAware ADS-B
Sun 05:55:19 PM -22.8790 -43.3860 51° Northeast 201 231 5,000 -367 Descending FlightAware ADS-B
Sun 05:55:48 PM -22.8700 -43.3720 55° Northeast 195 224 4,900 -316 Descending FlightAware ADS-B
Sun 05:55:57 PM -22.8680 -43.3660 70° East 194 223 4,800 -968 Descending FlightAware ADS-B
Sun 05:56:19 PM -22.8740 -43.3320 101° East 196 226 4,400 -750 Descending FlightAware ADS-B
Sun 05:56:37 PM -22.8750 -43.3240 98° East 197 227 4,300 -923 Descending FlightAware ADS-B
Sun 05:56:58 PM -22.8820 -43.2890 102° East 198 228 3,800 -1,200 Descending FlightAware ADS-B
Sun 05:57:17 PM -22.8850 -43.2730 102° East 197 227 3,500 -1,105 Descending FlightAware ADS-B
Sun 05:57:36 PM -22.8900 -43.2530 105° East 195 224 3,100 -1,024 Descending FlightAware ADS-B
Sun 05:57:58 PM -22.8940 -43.2330 102° East 192 221 2,800 -1,059 Descending FlightAware ADS-B
Sun 05:58:10 PM -22.8970 -43.2220 106° East 191 220 2,500 -938 Descending FlightAware ADS-B
Sun 05:58:30 PM -22.9000 -43.2030 100° East 179 206 2,300 -714 Descending FlightAware ADS-B
Sun 05:58:52 PM -22.9050 -43.1850 107° East 161 185 2,000 -789 Descending FlightAware ADS-B
Sun 05:59:08 PM -22.9090 -43.1740 112° Southeast 149 171 1,800 -750 Descending FlightAware ADS-B
Sun 05:59:24 PM -22.9110 -43.1630 101° East 132 152 1,600 -750 Descending FlightAware ADS-B
Sun 05:59:48 PM -22.9080 -43.1480 78° East 125 144 1,300 -450 Descending FlightAware ADS-B
Sun 06:00:04 PM -22.9060 -43.1380 78° East 125 144 1,300 -300 Level FlightAware ADS-B
Sun 06:00:08 PM -22.9050 -43.1360 62° Northeast 123 142 1,200 -462 Descending FlightAware ADS-B
Sun 06:00:17 PM -22.9020 -43.1320 51° Northeast 122 140 1,200  Level FlightAware ADS-B
Sun 06:00:24 PM -22.8990 -43.1290 43° Northeast 124 143 1,200 -316 Level FlightAware ADS-B
Sun 06:00:36 PM -22.8930 -43.1250 32° Northeast 122 140 1,100 -600 Descending FlightAware ADS-B
Sun 06:00:44 PM -22.8890 -43.1230 25° Northeast 125 144 1,000 -429 Descending FlightAware ADS-B
Sun 06:00:50 PM -22.8860 -43.1220 17° North 127 146 1,000 -200 Level FlightAware ADS-B
Sun 06:01:14 PM -22.8740 -43.1320 322° Northwest 144 166 900 -429 Descending FlightAware ADS-B
Sun 06:01:18 PM -22.8730 -43.1340 298° West 146 168 800 -1,000 Descending FlightAware ADS-B
Sun 06:01:26 PM -22.8730 -43.1410 270° West 147 169 700 -545 Descending FlightAware ADS-B
Sun 06:02:02 PM -22.8810 -43.1620 248° West 143 165 400 -558 Descending FlightAware ADS-B
Sun 06:02:09 PM -22.8840 -43.1640 212° Southwest 139 160 300 -462 Descending FlightAware ADS-B
Sun 06:02:28 PM -22.8900 -43.1640 180° South 136 157 200 -316 Descending FlightAware ADS-B

Login

Don't have an account? Register now (free) for customized features, flight alerts, and more!